Time,TemperatureF,DewpointF,PressureIn,WindDirection,WindDirectionDegrees,WindSpeedMPH,WindSpeedGustMPH,Humidity,HourlyPrecipIn,Conditions,Clouds,dailyrainin,SoftwareType,DateUTC
2013-01-28 00:01:00,30.0,26.0,-100.00,SSE,165,3.0,6.0,84,-99.99,,,-99.99,,2013-01-28 08:01:00,
2013-01-28 01:02:00,29.0,26.0,-100.00,SSE,160,6.0,10.0,88,-99.99,,,-99.99,,2013-01-28 09:02:00,
2013-01-28 01:11:00,29.0,26.0,-100.00,SSE,160,6.0,10.0,88,-99.99,,,-99.99,,2013-01-28 09:11:00,
2013-01-28 02:02:00,29.0,26.0,-100.00,SSE,165,9.0,13.0,88,-99.99,,,-99.99,,2013-01-28 10:02:00,
2013-01-28 03:02:00,29.0,26.0,-100.00,SSE,155,7.0,9.0,88,-99.99,,,-99.99,,2013-01-28 11:02:00,
2013-01-28 03:11:00,29.0,26.0,-100.00,SSE,155,7.0,9.0,88,-99.99,,,-99.99,,2013-01-28 11:11:00,
2013-01-28 04:03:00,29.0,25.0,-100.00,South,170,6.0,9.0,84,-99.99,,,-99.99,,2013-01-28 12:03:00,
2013-01-28 05:02:00,29.0,25.0,-100.00,North,5,5.0,9.0,84,-99.99,,,-99.99,,2013-01-28 13:02:00,
2013-01-28 05:10:00,29.0,25.0,-100.00,ESE,115,3.0,5.0,84,-99.99,,,-99.99,,2013-01-28 13:10:00,
2013-01-28 05:12:00,29.0,25.0,-100.00,North,5,5.0,9.0,84,-99.99,,,-99.99,,2013-01-28 13:12:00,
2013-01-28 06:02:00,29.0,25.0,-100.00,ESE,115,3.0,5.0,84,-99.99,,,-99.99,,2013-01-28 14:02:00,
2013-01-28 06:10:00,28.0,25.0,-100.00,North,360,3.0,7.0,88,-99.99,,,-99.99,,2013-01-28 14:10:00,
2013-01-28 07:03:00,28.0,25.0,-100.00,North,360,3.0,7.0,88,-99.99,,,-99.99,,2013-01-28 15:03:00,
2013-01-28 08:03:00,28.0,25.0,-100.00,SSE,160,5.0,9.0,88,-99.99,,,-99.99,,2013-01-28 16:03:00,
2013-01-28 08:10:00,28.0,25.0,-100.00,SSE,160,3.0,8.0,88,-99.99,,,-99.99,,2013-01-28 16:10:00,
2013-01-28 09:00:00,29.0,25.0,-100.00,East,100,1.0,3.0,84,-99.99,,,-99.99,,2013-01-28 17:00:00,
2013-01-28 09:01:00,28.0,25.0,-100.00,SSE,160,3.0,8.0,88,-99.99,,,-99.99,,2013-01-28 17:01:00,
2013-01-28 10:10:00,29.0,25.0,-100.00,North,5,3.0,5.0,84,-99.99,,,-99.99,,2013-01-28 18:10:00,
2013-01-28 11:02:00,29.0,25.0,-100.00,North,5,3.0,5.0,84,-99.99,,,-99.99,,2013-01-28 19:02:00,
2013-01-28 11:20:00,31.0,26.0,-100.00,South,175,1.0,3.0,81,-99.99,,,-99.99,,2013-01-28 19:20:00,
2013-01-28 12:02:00,31.0,26.0,-100.00,South,175,1.0,3.0,81,-99.99,,,-99.99,,2013-01-28 20:02:00,
2013-01-28 12:10:00,31.0,26.0,-100.00,SE,135,1.0,3.0,81,-99.99,,,-99.99,,2013-01-28 20:10:00,
2013-01-28 12:11:00,31.0,26.0,-100.00,South,175,1.0,3.0,81,-99.99,,,-99.99,,2013-01-28 20:11:00,
2013-01-28 13:03:00,31.0,26.0,-100.00,SE,135,1.0,3.0,81,-99.99,,,-99.99,,2013-01-28 21:03:00,
2013-01-28 14:02:00,32.0,26.0,-100.00,SE,130,1.0,2.0,78,-99.99,,,-99.99,,2013-01-28 22:02:00,
2013-01-28 14:10:00,33.0,26.0,-100.00,North,355,0.0,1.0,75,-99.99,,,-99.99,,2013-01-28 22:10:00,
2013-01-28 14:11:00,32.0,26.0,-100.00,SE,130,1.0,2.0,78,-99.99,,,-99.99,,2013-01-28 22:11:00,
2013-01-28 15:02:00,33.0,26.0,-100.00,North,355,0.0,1.0,75,-99.99,,,-99.99,,2013-01-28 23:02:00,
2013-01-28 16:02:00,33.0,26.0,-100.00,West,275,2.0,2.0,75,-99.99,,,-99.99,,2013-01-29 00:02:00,
2013-01-28 16:12:00,33.0,26.0,-100.00,West,275,2.0,2.0,75,-99.99,,,-99.99,,2013-01-29 00:12:00,
2013-01-28 17:02:00,33.0,26.0,-100.00,West,265,2.0,3.0,75,-99.99,,,-99.99,,2013-01-29 01:02:00,
2013-01-28 18:02:00,32.0,27.0,-100.00,WNW,300,3.0,5.0,81,-99.99,,,-99.99,,2013-01-29 02:02:00,
2013-01-28 18:11:00,32.0,27.0,-100.00,WNW,300,3.0,5.0,81,-99.99,,,-99.99,,2013-01-29 02:11:00,
2013-01-28 19:03:00,32.0,27.0,-100.00,SE,125,1.0,1.0,81,-99.99,,,-99.99,,2013-01-29 03:03:00,
2013-01-28 20:02:00,29.0,26.0,-100.00,ENE,75,1.0,2.0,88,-99.99,,,-99.99,,2013-01-29 04:02:00,
2013-01-28 20:11:00,29.0,26.0,-100.00,ENE,75,1.0,2.0,88,-99.99,,,-99.99,,2013-01-29 04:11:00,
2013-01-28 21:03:00,29.0,26.0,-100.00,WNW,290,0.0,1.0,88,-99.99,,,-99.99,,2013-01-29 05:03:00,
2013-01-28 22:01:00,30.0,27.0,-100.00,South,180,3.0,5.0,88,-99.99,,,-99.99,,2013-01-29 06:01:00,
2013-01-28 22:11:00,30.0,27.0,-100.00,South,180,3.0,5.0,88,-99.99,,,-99.99,,2013-01-29 06:11:00,
2013-01-28 23:01:00,30.0,27.0,-100.00,South,170,2.0,3.0,88,-99.99,,,-99.99,,2013-01-29 07:01:00,
2013-01-28 23:10:00,30.0,26.0,-100.00,SSE,155,3.0,6.0,84,-99.99,,,-99.99,,2013-01-29 07:10:00,